createdAt,value
2022-10-08T00:01:29.041Z,98455.80
2022-10-08T00:03:57.645Z,98448.83
2022-10-08T00:06:30.071Z,98446.39
2022-10-08T00:09:02.451Z,98446.40
2022-10-08T00:11:33.556Z,98445.88
2022-10-08T00:14:04.655Z,98443.29
2022-10-08T00:16:35.682Z,98439.81
2022-10-08T00:19:06.993Z,98440.34
2022-10-08T00:21:37.899Z,98436.52
2022-10-08T00:24:07.614Z,98435.13
2022-10-08T00:26:42.677Z,98429.90
2022-10-08T00:29:14.672Z,98430.04
2022-10-08T00:31:45.959Z,98425.70
2022-10-08T00:34:23.452Z,98423.27
2022-10-08T00:36:53.589Z,98421.34
2022-10-08T00:39:24.113Z,98419.77
2022-10-08T00:41:55.093Z,98417.69
2022-10-08T00:44:51.697Z,98416.13
2022-10-08T00:47:31.388Z,98412.29
2022-10-08T00:50:09.658Z,98410.36
2022-10-08T00:52:47.758Z,98412.80
2022-10-08T00:55:19.838Z,98413.69
2022-10-08T00:57:48.047Z,98412.11
2022-10-08T01:00:20.125Z,98412.11
2022-10-08T01:02:48.478Z,98408.96
2022-10-08T01:05:20.018Z,98406.87
2022-10-08T01:07:52.448Z,98407.58
2022-10-08T01:10:43.975Z,98406.71
2022-10-08T01:13:37.918Z,98402.02
2022-10-08T01:16:28.482Z,98398.01
2022-10-08T01:19:14.330Z,98393.48
2022-10-08T01:21:47.656Z,98390.35
2022-10-08T01:25:11.800Z,98389.84
2022-10-08T01:27:46.734Z,98392.10
2022-10-08T01:30:17.784Z,98390.88
2022-10-08T01:33:03.104Z,98393.31
2022-10-08T01:35:34.638Z,98391.40
2022-10-08T01:38:07.186Z,98391.91
2022-10-08T01:40:37.840Z,98394.36
2022-10-08T01:43:10.537Z,98396.79
2022-10-08T01:45:42.273Z,98393.31
2022-10-08T01:48:22.126Z,98394.18
2022-10-08T01:51:03.106Z,98393.83
2022-10-08T01:53:37.746Z,98393.82
2022-10-08T01:56:09.741Z,98394.70
2022-10-08T01:59:06.479Z,98393.30
2022-10-08T02:01:41.527Z,98389.31
2022-10-08T02:04:28.335Z,98388.62
2022-10-08T02:06:58.007Z,98388.44
2022-10-08T02:09:27.934Z,98386.87
2022-10-08T02:11:55.840Z,98383.73
2022-10-08T02:14:26.707Z,98382.33
2022-10-08T02:17:08.115Z,98382.67
2022-10-08T02:20:14.228Z,98386.31
2022-10-08T02:22:59.141Z,98383.70
2022-10-08T02:25:55.133Z,98385.27
2022-10-08T02:28:36.660Z,98386.48
2022-10-08T02:31:18.087Z,98387.17
2022-10-08T02:34:01.054Z,98385.60
2022-10-08T02:36:34.420Z,98387.52
2022-10-08T02:39:04.844Z,98389.25
2022-10-08T02:41:50.059Z,98390.29
2022-10-08T02:44:29.079Z,98389.59
2022-10-08T02:47:00.942Z,98385.93
2022-10-08T02:49:33.720Z,98386.63
2022-10-08T02:52:03.165Z,98384.38
2022-10-08T02:54:36.131Z,98383.52
2022-10-08T02:57:18.918Z,98383.69
2022-10-08T02:59:48.516Z,98378.64
2022-10-08T03:02:26.314Z,98377.41
2022-10-08T03:05:01.676Z,98375.84
2022-10-08T03:07:31.844Z,98373.56
2022-10-08T03:10:05.951Z,98372.86
2022-10-08T03:12:34.621Z,98373.20
2022-10-08T03:15:02.561Z,98372.46
2022-10-08T03:17:40.402Z,98371.58
2022-10-08T03:20:11.600Z,98372.79
2022-10-08T03:22:40.604Z,98380.25
2022-10-08T03:25:08.686Z,98378.66
2022-10-08T03:27:36.486Z,98377.44
2022-10-08T03:30:04.923Z,98375.70
2022-10-08T03:32:32.753Z,98375.02
2022-10-08T03:35:00.574Z,98375.00
2022-10-08T03:37:28.296Z,98371.70
2022-10-08T03:39:56.098Z,98373.46
2022-10-08T03:42:23.891Z,98369.64
2022-10-08T03:44:51.681Z,98367.39
2022-10-08T03:47:19.531Z,98369.47
2022-10-08T03:49:47.283Z,98364.27
2022-10-08T03:52:15.105Z,98364.79
2022-10-08T03:54:42.824Z,98366.18
2022-10-08T03:57:10.466Z,98365.84
2022-10-08T03:59:38.247Z,98365.68
2022-10-08T04:02:06.006Z,98364.80
2022-10-08T04:04:33.818Z,98363.76
2022-10-08T04:07:01.576Z,98367.91
2022-10-08T04:09:29.381Z,98367.55
2022-10-08T04:11:57.113Z,98364.03
2022-10-08T04:14:24.850Z,98361.75
2022-10-08T04:16:55.483Z,98362.05
2022-10-08T04:19:23.251Z,98362.72
2022-10-08T04:21:51.016Z,98358.16
2022-10-08T04:24:18.773Z,98360.38
2022-10-08T04:26:46.688Z,98359.13
2022-10-08T04:29:14.615Z,98360.31
2022-10-08T04:31:42.438Z,98359.24
2022-10-08T04:34:11.791Z,98359.07
2022-10-08T04:36:39.729Z,98357.65
2022-10-08T04:39:07.500Z,98358.17
2022-10-08T04:41:35.302Z,98355.75
2022-10-08T04:44:03.180Z,98356.29
2022-10-08T04:46:31.309Z,98358.39
2022-10-08T04:49:00.201Z,98356.33
2022-10-08T04:51:28.617Z,98354.98
2022-10-08T04:53:58.209Z,98355.33
2022-10-08T04:56:29.059Z,98351.89
2022-10-08T04:58:59.385Z,98351.57
2022-10-08T05:01:29.285Z,98350.21
2022-10-08T05:03:59.450Z,98352.14
2022-10-08T05:06:31.545Z,98351.49
2022-10-08T05:09:04.512Z,98347.56
2022-10-08T05:11:33.028Z,98345.75
2022-10-08T05:14:02.300Z,98346.13
2022-10-08T05:16:30.511Z,98344.34
2022-10-08T05:18:58.717Z,98342.35
2022-10-08T05:21:29.529Z,98339.91
2022-10-08T05:24:03.551Z,98334.83
2022-10-08T05:26:57.443Z,98327.80
2022-10-08T05:29:22.648Z,98321.07
2022-10-08T05:31:50.595Z,98320.13
2022-10-08T05:34:20.555Z,98318.10
2022-10-08T05:36:48.448Z,98312.01
2022-10-08T05:39:17.299Z,98312.05
2022-10-08T05:41:46.003Z,98312.25
2022-10-08T05:44:14.137Z,98310.84
2022-10-08T05:46:42.264Z,98311.23
2022-10-08T05:49:21.395Z,98312.20
2022-10-08T05:51:50.279Z,98314.81
2022-10-08T05:54:19.416Z,98314.83
2022-10-08T05:56:47.681Z,98316.16
2022-10-08T05:59:19.891Z,98317.35
2022-10-08T06:01:47.896Z,98318.51
2022-10-08T06:04:17.361Z,98318.23
2022-10-08T06:06:45.529Z,98313.09
2022-10-08T06:09:16.847Z,98312.94
2022-10-08T06:11:44.792Z,98311.95
2022-10-08T06:14:14.791Z,98312.98
2022-10-08T06:16:43.511Z,98306.14
2022-10-08T06:19:12.028Z,98305.71
2022-10-08T06:21:43.211Z,98308.55
2022-10-08T06:24:12.604Z,98305.30
2022-10-08T06:26:42.562Z,98298.53
2022-10-08T06:29:17.156Z,98295.60
2022-10-08T06:31:46.812Z,98292.23
2022-10-08T06:34:15.689Z,98291.34
2022-10-08T06:36:44.265Z,98287.25
2022-10-08T06:39:14.915Z,98287.23
2022-10-08T06:41:43.038Z,98289.27
2022-10-08T06:44:14.564Z,98287.94
2022-10-08T06:46:43.111Z,98290.96
2022-10-08T06:49:12.482Z,98293.88
2022-10-08T06:51:42.885Z,98291.21
2022-10-08T06:54:10.839Z,98292.29
2022-10-08T06:56:39.460Z,98291.08
2022-10-08T06:59:09.112Z,98291.87
2022-10-08T07:01:37.848Z,98291.29
2022-10-08T07:04:07.299Z,98291.17
2022-10-08T07:06:39.394Z,98290.41
2022-10-08T07:09:10.502Z,98289.66
2022-10-08T07:11:39.148Z,98287.58
2022-10-08T07:14:08.080Z,98286.85
2022-10-08T07:16:36.721Z,98285.64
2022-10-08T07:19:05.722Z,98285.10
2022-10-08T07:21:34.378Z,98281.42
2022-10-08T07:24:03.179Z,98280.66
2022-10-08T07:26:36.204Z,98281.66
2022-10-08T07:29:14.198Z,98277.27
2022-10-08T07:31:43.075Z,98279.29
2022-10-08T07:34:13.755Z,98279.48
2022-10-08T07:36:42.668Z,98280.45
2022-10-08T07:39:14.365Z,98279.11
2022-10-08T07:41:43.138Z,98279.20
2022-10-08T07:44:12.977Z,98274.96
2022-10-08T07:46:47.863Z,98274.06
2022-10-08T07:49:18.885Z,98277.94
2022-10-08T07:51:48.266Z,98282.73
2022-10-08T07:54:18.790Z,98278.73
2022-10-08T07:56:47.271Z,98277.64
2022-10-08T07:59:16.398Z,98276.80
2022-10-08T08:01:45.701Z,98274.91
2022-10-08T08:04:15.531Z,98272.47
2022-10-08T08:06:48.409Z,98272.67
2022-10-08T08:09:18.817Z,98270.65
2022-10-08T08:11:49.319Z,98270.13
2022-10-08T08:14:18.657Z,98267.33
2022-10-08T08:16:47.517Z,98266.59
2022-10-08T08:19:16.189Z,98271.23
2022-10-08T08:21:44.672Z,98268.89
2022-10-08T08:24:15.508Z,98271.60
2022-10-08T08:26:44.758Z,98271.63
2022-10-08T08:29:15.966Z,98271.60
2022-10-08T08:31:48.092Z,98269.98
2022-10-08T08:34:19.379Z,98268.38
2022-10-08T08:36:51.485Z,98266.48
2022-10-08T08:39:23.333Z,98261.95
2022-10-08T08:42:05.065Z,98260.40
2022-10-08T08:44:41.650Z,98258.67
2022-10-08T08:47:25.510Z,98259.41
2022-10-08T08:49:58.094Z,98254.66
2022-10-08T08:52:30.517Z,98252.60
2022-10-08T08:54:58.941Z,98251.25
2022-10-08T08:57:38.829Z,98249.14
2022-10-08T09:00:29.587Z,98244.11
2022-10-08T09:03:12.024Z,98239.95
2022-10-08T09:05:44.485Z,98238.32
2022-10-08T09:08:35.296Z,98235.87
2022-10-08T09:11:06.345Z,98226.20
2022-10-08T09:13:37.789Z,98220.58
2022-10-08T09:16:06.415Z,98217.87
2022-10-08T09:18:34.718Z,98216.63
2022-10-08T09:21:03.879Z,98215.05
2022-10-08T09:23:32.691Z,98214.31
2022-10-08T09:26:10.405Z,98208.92
2022-10-08T09:28:52.892Z,98204.73
2022-10-08T09:31:27.658Z,98204.59
2022-10-08T09:34:01.183Z,98196.11
2022-10-08T09:36:37.672Z,98190.68
2022-10-08T09:39:16.529Z,98180.42
2022-10-08T09:41:47.263Z,98176.64
2022-10-08T09:44:23.418Z,98175.20
2022-10-08T09:47:06.999Z,98172.94
2022-10-08T09:49:39.941Z,98166.72
2022-10-08T09:52:19.651Z,98165.58
2022-10-08T09:54:53.511Z,98162.80
2022-10-08T09:57:23.266Z,98162.83
2022-10-08T10:00:00.288Z,98155.11
2022-10-08T10:02:36.533Z,98151.70
2022-10-08T10:05:08.250Z,98143.66
2022-10-08T10:07:40.138Z,98138.89
2022-10-08T10:10:20.546Z,98138.39
2022-10-08T10:13:22.349Z,98136.75
2022-10-08T10:16:12.846Z,98129.06
2022-10-08T10:18:56.542Z,98127.20
2022-10-08T10:22:01.823Z,98116.98
2022-10-08T10:24:42.125Z,98114.74
2022-10-08T10:27:17.885Z,98109.88
2022-10-08T10:29:53.594Z,98105.19
2022-10-08T10:32:32.047Z,98105.66
2022-10-08T10:35:29.365Z,98101.36
2022-10-08T10:38:08.123Z,98096.17
2022-10-08T10:40:57.201Z,98087.81
2022-10-08T10:43:33.517Z,98082.99
2022-10-08T10:46:21.374Z,98077.09
2022-10-08T10:48:51.163Z,98071.97
2022-10-08T10:51:34.557Z,98069.66
2022-10-08T10:54:24.185Z,98063.85
2022-10-08T10:57:00.183Z,98059.94
2022-10-08T10:59:45.505Z,98058.77
2022-10-08T11:02:19.965Z,98055.33
2022-10-08T11:05:05.417Z,98053.48
2022-10-08T11:07:47.718Z,98051.40
2022-10-08T11:10:32.686Z,98050.94
2022-10-08T11:13:19.646Z,98048.42
2022-10-08T11:16:10.164Z,98039.83
2022-10-08T11:18:49.964Z,98033.59
2022-10-08T11:21:30.582Z,98032.05
2022-10-08T11:24:20.132Z,98028.29
2022-10-08T11:26:56.218Z,98025.89
2022-10-08T11:29:29.026Z,98019.33
2022-10-08T11:31:58.301Z,98018.45
2022-10-08T11:34:36.241Z,98015.42
2022-10-08T11:37:16.694Z,98012.66
2022-10-08T11:40:08.650Z,98006.36
2022-10-08T11:42:55.799Z,98003.42
2022-10-08T11:45:24.060Z,98000.44
2022-10-08T11:47:54.877Z,98000.83
2022-10-08T11:50:37.758Z,97997.92
2022-10-08T11:53:19.672Z,97995.58
2022-10-08T11:55:56.136Z,97997.11
2022-10-08T11:58:35.434Z,97993.34
2022-10-08T12:01:07.458Z,97988.98
2022-10-08T12:03:37.739Z,97983.41
2022-10-08T12:06:29.573Z,97979.38
2022-10-08T12:09:01.233Z,97977.11
2022-10-08T12:11:29.738Z,97970.42
2022-10-08T12:14:17.601Z,97964.21
2022-10-08T12:16:49.075Z,97966.48
2022-10-08T12:19:33.500Z,97967.83
2022-10-08T12:22:16.836Z,97961.86
2022-10-08T12:24:49.970Z,97954.23
2022-10-08T12:27:28.167Z,97952.33
2022-10-08T12:29:58.085Z,97952.75
2022-10-08T12:32:30.963Z,97951.68
2022-10-08T12:35:02.213Z,97952.10
2022-10-08T12:37:54.458Z,97949.52
2022-10-08T12:41:00.249Z,97948.20
2022-10-08T12:43:45.359Z,97946.86
2022-10-08T12:46:31.190Z,97946.16
2022-10-08T12:49:18.026Z,97938.25
2022-10-08T12:52:01.440Z,97936.09
2022-10-08T12:54:31.781Z,97938.55
2022-10-08T12:57:08.324Z,97932.82
2022-10-08T12:59:41.233Z,97932.75
2022-10-08T13:02:37.413Z,97929.03
2022-10-08T13:05:30.734Z,97923.86
2022-10-08T13:07:59.675Z,97924.41
2022-10-08T13:10:29.821Z,97922.36
2022-10-08T13:13:42.235Z,97918.70
2022-10-08T13:16:12.653Z,97914.69
2022-10-08T13:18:50.599Z,97915.02
2022-10-08T13:21:25.545Z,97912.76
2022-10-08T13:23:53.970Z,97911.60
2022-10-08T13:26:40.562Z,97911.79
2022-10-08T13:29:23.925Z,97911.69
2022-10-08T13:32:00.879Z,97910.96
2022-10-08T13:34:41.155Z,97909.25
2022-10-08T13:37:35.042Z,97908.55
2022-10-08T13:40:12.474Z,97906.73
2022-10-08T13:42:43.925Z,97904.13
2022-10-08T13:45:21.408Z,97906.08
2022-10-08T13:47:52.734Z,97903.23
2022-10-08T13:50:22.919Z,97898.27
2022-10-08T13:52:57.359Z,97901.02
2022-10-08T13:55:31.882Z,97900.84
2022-10-08T13:58:02.948Z,97902.22
2022-10-08T14:00:34.683Z,97901.27
2022-10-08T14:03:04.173Z,97898.81
2022-10-08T14:05:41.322Z,97898.88
2022-10-08T14:08:15.014Z,97894.98
2022-10-08T14:10:44.352Z,97893.77
2022-10-08T14:13:15.106Z,97891.54
2022-10-08T14:15:43.631Z,97886.46
2022-10-08T14:18:12.030Z,97889.51
2022-10-08T14:20:40.252Z,97889.24
2022-10-08T14:23:12.822Z,97888.14
2022-10-08T14:25:41.811Z,97886.21
2022-10-08T14:28:10.193Z,97882.72
2022-10-08T14:30:38.579Z,97879.27
2022-10-08T14:33:11.261Z,97875.34
2022-10-08T14:35:39.961Z,97875.23
2022-10-08T14:38:09.051Z,97873.75
2022-10-08T14:40:37.999Z,97871.84
2022-10-08T14:43:06.528Z,97870.10
2022-10-08T14:45:35.343Z,97872.13
2022-10-08T14:48:04.134Z,97873.06
2022-10-08T14:50:32.593Z,97871.17
2022-10-08T14:53:01.215Z,97869.84
2022-10-08T14:55:29.899Z,97869.02
2022-10-08T14:57:58.672Z,97870.39
2022-10-08T15:00:27.201Z,97870.35
2022-10-08T15:02:55.560Z,97870.98
2022-10-08T15:05:24.522Z,97870.95
2022-10-08T15:07:53.677Z,97872.20
2022-10-08T15:10:22.301Z,97872.88
2022-10-08T15:12:51.251Z,97874.14
2022-10-08T15:15:20.097Z,97877.48
2022-10-08T15:17:48.903Z,97876.04
2022-10-08T15:20:17.589Z,97878.16
2022-10-08T15:22:46.457Z,97878.00
2022-10-08T15:25:15.123Z,97883.41
2022-10-08T15:27:43.902Z,97882.27
2022-10-08T15:30:13.120Z,97884.35
2022-10-08T15:32:42.720Z,97881.31
2022-10-08T15:35:12.938Z,97883.23
2022-10-08T15:37:42.347Z,97885.72
2022-10-08T15:40:10.906Z,97885.09
2022-10-08T15:42:38.899Z,97882.98
2022-10-08T15:45:07.490Z,97883.71
2022-10-08T15:47:36.118Z,97887.08
2022-10-08T15:50:05.548Z,97887.40
2022-10-08T15:52:34.667Z,97885.80
2022-10-08T15:55:03.355Z,97883.50
2022-10-08T15:57:32.997Z,97883.67
2022-10-08T16:00:01.502Z,97887.10
2022-10-08T16:02:40.576Z,97889.16
2022-10-08T16:05:09.135Z,97889.40
2022-10-08T16:07:37.306Z,97889.05
2022-10-08T16:10:06.417Z,97889.88
2022-10-08T16:12:35.655Z,97891.92
2022-10-08T16:15:04.038Z,97898.06
2022-10-08T16:17:32.726Z,97904.15
2022-10-08T16:20:01.062Z,97901.59
2022-10-08T16:22:29.269Z,97904.23
2022-10-08T16:24:57.481Z,97903.55
2022-10-08T16:27:25.687Z,97905.45
2022-10-08T16:29:54.234Z,97907.47
2022-10-08T16:32:22.975Z,97910.87
2022-10-08T16:34:53.493Z,97914.20
2022-10-08T16:37:22.109Z,97917.00
2022-10-08T16:39:50.516Z,97918.27
2022-10-08T16:42:18.601Z,97920.38
2022-10-08T16:44:47.336Z,97924.29
2022-10-08T16:47:15.896Z,97925.47
2022-10-08T16:49:44.397Z,97931.73
2022-10-08T16:52:12.464Z,97934.84
2022-10-08T16:54:40.588Z,97935.02
2022-10-08T16:57:08.784Z,97934.99
2022-10-08T16:59:36.727Z,97938.27
2022-10-08T17:02:04.860Z,97939.15
2022-10-08T17:04:39.161Z,97945.01
2022-10-08T17:07:07.826Z,97943.51
2022-10-08T17:09:36.475Z,97944.27
2022-10-08T17:12:04.861Z,97946.55
2022-10-08T17:14:33.442Z,97945.15
2022-10-08T17:17:01.767Z,97946.95
2022-10-08T17:19:30.275Z,97952.08
2022-10-08T17:21:58.492Z,97952.74
2022-10-08T17:24:26.492Z,97954.57
2022-10-08T17:26:54.877Z,97959.52
2022-10-08T17:29:23.114Z,97958.16
2022-10-08T17:31:51.900Z,97959.60
2022-10-08T17:34:20.605Z,97959.75
2022-10-08T17:36:48.717Z,97959.39
2022-10-08T17:39:17.038Z,97958.13
2022-10-08T17:41:45.207Z,97959.54
2022-10-08T17:44:13.762Z,97963.11
2022-10-08T17:46:47.496Z,97963.54
2022-10-08T17:49:18.276Z,97964.30
2022-10-08T17:51:48.130Z,97965.98
2022-10-08T17:54:19.256Z,97968.91
2022-10-08T17:56:47.942Z,97970.11
2022-10-08T17:59:18.688Z,97965.20
2022-10-08T18:01:47.291Z,97963.28
2022-10-08T18:04:18.774Z,97962.06
2022-10-08T18:06:48.181Z,97958.04
2022-10-08T18:09:21.157Z,97956.11
2022-10-08T18:11:54.189Z,97956.59
2022-10-08T18:14:23.036Z,97957.77
2022-10-08T18:16:51.655Z,97954.70
2022-10-08T18:19:20.519Z,97957.35
2022-10-08T18:21:50.448Z,97954.74
2022-10-08T18:24:19.070Z,97956.68
2022-10-08T18:26:47.148Z,97956.70
2022-10-08T18:29:15.690Z,97956.52
2022-10-08T18:31:46.182Z,97954.77
2022-10-08T18:34:16.497Z,97954.09
2022-10-08T18:36:46.362Z,97951.48
2022-10-08T18:39:17.759Z,97952.46
2022-10-08T18:41:48.043Z,97956.08
2022-10-08T18:44:19.858Z,97960.90
2022-10-08T18:46:50.131Z,97963.51
2022-10-08T18:49:20.713Z,97965.91
2022-10-08T18:51:50.108Z,97967.31
2022-10-08T18:54:18.312Z,97965.14
2022-10-08T18:56:46.686Z,97966.09
2022-10-08T18:59:17.608Z,97970.87
2022-10-08T19:01:48.442Z,97967.91
2022-10-08T19:04:22.141Z,97970.21
2022-10-08T19:06:53.820Z,97973.72
2022-10-08T19:09:22.440Z,97971.24
2022-10-08T19:11:53.286Z,97972.65
2022-10-08T19:14:23.551Z,97972.32
2022-10-08T19:16:52.123Z,97972.33
2022-10-08T19:19:25.274Z,97972.40
2022-10-08T19:21:55.091Z,97971.61
2022-10-08T19:24:25.565Z,97974.15
2022-10-08T19:26:55.171Z,97977.58
2022-10-08T19:29:26.994Z,97975.23
2022-10-08T19:31:56.077Z,97984.81
2022-10-08T19:34:26.863Z,97990.58
2022-10-08T19:36:55.160Z,97990.63
2022-10-08T19:39:26.478Z,97998.39
2022-10-08T19:41:55.243Z,97999.98
2022-10-08T19:44:23.372Z,98002.66
2022-10-08T19:46:52.284Z,98005.67
2022-10-08T19:49:22.050Z,98008.88
2022-10-08T19:51:50.095Z,98008.70
2022-10-08T19:54:18.440Z,98009.57
2022-10-08T19:56:47.174Z,98002.90
2022-10-08T19:59:16.022Z,98004.11
2022-10-08T20:01:45.432Z,98002.21
2022-10-08T20:04:14.260Z,98008.30
2022-10-08T20:06:43.334Z,98006.71
2022-10-08T20:09:13.136Z,98008.98
2022-10-08T20:11:43.751Z,98011.31
2022-10-08T20:14:13.605Z,98007.02
2022-10-08T20:16:43.752Z,98004.15
2022-10-08T20:19:17.932Z,98003.09
2022-10-08T20:21:47.387Z,98006.20
2022-10-08T20:24:15.840Z,98005.14
2022-10-08T20:26:45.105Z,98007.73
2022-10-08T20:29:16.406Z,98008.53
2022-10-08T20:31:49.530Z,98011.98
2022-10-08T20:34:20.176Z,98008.38
2022-10-08T20:36:49.147Z,98010.57
2022-10-08T20:39:19.504Z,98012.58
2022-10-08T20:41:48.027Z,98013.36
2022-10-08T20:44:16.192Z,98016.02
2022-10-08T20:46:44.973Z,98017.13
2022-10-08T20:49:13.839Z,98017.16
2022-10-08T20:51:43.347Z,98020.86
2022-10-08T20:54:17.891Z,98024.41
2022-10-08T20:56:45.934Z,98023.23
2022-10-08T20:59:16.706Z,98025.76
2022-10-08T21:01:46.520Z,98025.14
2022-10-08T21:04:14.944Z,98027.14
2022-10-08T21:06:45.375Z,98034.80
2022-10-08T21:09:14.642Z,98038.60
2022-10-08T21:11:43.028Z,98039.75
2022-10-08T21:14:13.335Z,98043.85
2022-10-08T21:16:41.542Z,98042.33
2022-10-08T21:19:25.943Z,98042.36
2022-10-08T21:21:53.987Z,98039.75
2022-10-08T21:24:22.135Z,98036.48
2022-10-08T21:26:50.211Z,98034.60
2022-10-08T21:29:18.396Z,98033.70
2022-10-08T21:31:46.479Z,98034.80
2022-10-08T21:34:14.617Z,98036.08
2022-10-08T21:36:45.102Z,98036.80
2022-10-08T21:39:17.418Z,98038.41
2022-10-08T21:41:47.006Z,98038.48
2022-10-08T21:44:15.457Z,98038.36
2022-10-08T21:46:44.448Z,98035.64
2022-10-08T21:49:20.771Z,98031.86
2022-10-08T21:51:49.218Z,98033.03
2022-10-08T21:54:17.311Z,98030.50
2022-10-08T21:56:45.335Z,98027.09
2022-10-08T21:59:15.505Z,98023.30
2022-10-08T22:01:45.330Z,98029.30
2022-10-08T22:04:19.375Z,98030.39
2022-10-08T22:06:50.554Z,98028.14
2022-10-08T22:09:26.767Z,98027.11
2022-10-08T22:11:56.821Z,98023.99
2022-10-08T22:14:25.766Z,98024.73
2022-10-08T22:16:54.717Z,98026.52
2022-10-08T22:19:23.062Z,98027.61
2022-10-08T22:21:51.640Z,98026.96
2022-10-08T22:24:19.886Z,98027.16
2022-10-08T22:26:48.476Z,98025.46
2022-10-08T22:29:16.531Z,98020.10
2022-10-08T22:31:44.952Z,98025.23
2022-10-08T22:34:13.138Z,98024.63
2022-10-08T22:36:43.571Z,98026.48
2022-10-08T22:39:11.921Z,98027.98
2022-10-08T22:41:40.052Z,98027.38
2022-10-08T22:44:08.155Z,98025.89
2022-10-08T22:46:38.932Z,98024.54
2022-10-08T22:49:11.088Z,98029.83
2022-10-08T22:51:39.784Z,98028.45
2022-10-08T22:54:08.361Z,98025.14
2022-10-08T22:56:36.653Z,98024.48
2022-10-08T22:59:04.606Z,98025.35
2022-10-08T23:01:32.711Z,98025.55
2022-10-08T23:04:00.715Z,98028.69
2022-10-08T23:06:31.988Z,98030.44
2022-10-08T23:09:03.855Z,98034.13
2022-10-08T23:11:33.247Z,98034.67
2022-10-08T23:14:02.056Z,98032.60
2022-10-08T23:16:32.626Z,98033.13
2022-10-08T23:19:10.344Z,98032.80
2022-10-08T23:21:38.865Z,98033.90
2022-10-08T23:24:07.040Z,98036.21
2022-10-08T23:26:36.405Z,98035.39
2022-10-08T23:29:05.131Z,98037.89
2022-10-08T23:31:35.713Z,98037.44
2022-10-08T23:34:05.699Z,98034.55
2022-10-08T23:36:36.680Z,98033.05
2022-10-08T23:39:05.975Z,98034.51
2022-10-08T23:41:36.047Z,98035.78
2022-10-08T23:44:04.001Z,98037.37
2022-10-08T23:46:31.861Z,98037.91
2022-10-08T23:49:00.246Z,98031.98
2022-10-08T23:51:31.872Z,98031.13
2022-10-08T23:54:01.480Z,98034.25
2022-10-08T23:56:29.584Z,98029.55
2022-10-08T23:58:58.566Z,98030.91
